createdAt,value
2024-05-09T00:02:25.202Z,99625.81
2024-05-09T00:04:56.193Z,99622.38
2024-05-09T00:07:27.039Z,99617.78
2024-05-09T00:09:57.820Z,99606.50
2024-05-09T00:12:28.910Z,99610.34
2024-05-09T00:14:59.670Z,99614.78
2024-05-09T00:17:30.870Z,99606.16
2024-05-09T00:20:01.909Z,99607.00
2024-05-09T00:22:32.642Z,99605.47
2024-05-09T00:25:03.797Z,99602.44
2024-05-09T00:27:34.548Z,99603.53
2024-05-09T00:30:07.052Z,99604.38
2024-05-09T00:32:38.555Z,99605.13
2024-05-09T00:35:09.819Z,99603.63
2024-05-09T00:37:40.631Z,99600.19
2024-05-09T00:40:18.620Z,99604.97
2024-05-09T00:42:57.565Z,99610.59
2024-05-09T00:45:28.477Z,99609.06
2024-05-09T00:47:59.761Z,99609.06
2024-05-09T00:50:36.394Z,99606.59
2024-05-09T00:53:10.378Z,99611.53
2024-05-09T00:55:42.954Z,99608.03
2024-05-09T00:58:17.325Z,99607.78
2024-05-09T01:00:48.539Z,99606.06
2024-05-09T01:03:20.109Z,99604.97
2024-05-09T01:05:51.373Z,99597.88
2024-05-09T01:08:22.578Z,99606.16
2024-05-09T01:10:53.612Z,99605.63
2024-05-09T01:13:24.457Z,99607.03
2024-05-09T01:15:55.669Z,99607.78
2024-05-09T01:18:26.720Z,99604.78
2024-05-09T01:20:57.607Z,99615.03
2024-05-09T01:23:28.426Z,99611.97
2024-05-09T01:25:59.268Z,99614.50
2024-05-09T01:28:30.239Z,99615.09
2024-05-09T01:31:01.158Z,99611.53
2024-05-09T01:33:32.731Z,99611.19
2024-05-09T01:36:03.846Z,99614.78
2024-05-09T01:38:37.816Z,99613.56
2024-05-09T01:41:09.162Z,99606.25
2024-05-09T01:43:40.048Z,99610.50
2024-05-09T01:46:16.743Z,99610.06
2024-05-09T01:48:47.735Z,99613.41
2024-05-09T01:51:18.664Z,99608.72
2024-05-09T01:53:49.735Z,99611.19
2024-05-09T01:56:20.578Z,99607.69
2024-05-09T01:58:51.641Z,99606.56
2024-05-09T02:01:22.505Z,99604.94
2024-05-09T02:03:53.419Z,99601.78
2024-05-09T02:06:24.582Z,99602.03
2024-05-09T02:08:55.432Z,99598.19
2024-05-09T02:11:26.350Z,99608.97
2024-05-09T02:13:57.370Z,99608.41
2024-05-09T02:16:28.236Z,99606.09
2024-05-09T02:19:02.347Z,99613.09
2024-05-09T02:21:34.463Z,99595.97
2024-05-09T02:24:05.294Z,99602.28
2024-05-09T02:26:36.175Z,99597.34
2024-05-09T02:29:07.058Z,99597.94
2024-05-09T02:31:37.899Z,99594.84
2024-05-09T02:34:08.884Z,99598.25
2024-05-09T02:36:39.876Z,99600.22
2024-05-09T02:39:10.843Z,99589.06
2024-05-09T02:41:41.687Z,99598.19
2024-05-09T02:44:12.561Z,99608.72
2024-05-09T02:46:43.516Z,99609.88
2024-05-09T02:49:15.997Z,99602.41
2024-05-09T02:51:46.822Z,99604.94
2024-05-09T02:54:17.677Z,99606.03
2024-05-09T02:56:48.521Z,99614.81
2024-05-09T02:59:19.370Z,99611.38
2024-05-09T03:01:50.338Z,99615.81
2024-05-09T03:04:21.277Z,99613.59
2024-05-09T03:06:52.225Z,99613.03
2024-05-09T03:09:23.038Z,99617.66
2024-05-09T03:11:54.044Z,99613.69
2024-05-09T03:14:25.117Z,99615.34
2024-05-09T03:16:56.290Z,99608.22
2024-05-09T03:19:27.446Z,99618.47
2024-05-09T03:21:58.352Z,99608.22
2024-05-09T03:24:29.159Z,99615.81
2024-05-09T03:27:00.030Z,99622.31
2024-05-09T03:29:30.944Z,99619.91
2024-05-09T03:32:04.051Z,99616.84
2024-05-09T03:34:35.242Z,99622.75
2024-05-09T03:37:06.078Z,99617.00
2024-05-09T03:39:37.610Z,99623.34
2024-05-09T03:42:08.832Z,99622.38
2024-05-09T03:44:39.866Z,99625.66
2024-05-09T03:47:10.690Z,99628.31
2024-05-09T03:49:41.665Z,99634.28
2024-05-09T03:52:12.708Z,99629.66
2024-05-09T03:54:49.575Z,99633.69
2024-05-09T03:57:20.670Z,99631.41
2024-05-09T03:59:51.534Z,99632.94
2024-05-09T04:02:22.516Z,99634.28
2024-05-09T04:04:53.431Z,99635.34
2024-05-09T04:07:24.328Z,99644.56
2024-05-09T04:09:55.099Z,99638.13
2024-05-09T04:12:25.936Z,99637.88
2024-05-09T04:14:56.756Z,99636.16
2024-05-09T04:17:28.574Z,99638.56
2024-05-09T04:19:59.754Z,99642.72
2024-05-09T04:22:30.565Z,99643.31
2024-05-09T04:25:01.431Z,99642.25
2024-05-09T04:27:32.272Z,99642.53
2024-05-09T04:30:03.715Z,99640.91
2024-05-09T04:32:37.888Z,99639.63
2024-05-09T04:35:09.180Z,99642.28
2024-05-09T04:37:40.279Z,99640.84
2024-05-09T04:40:24.035Z,99649.19
2024-05-09T04:43:01.888Z,99644.31
2024-05-09T04:45:32.968Z,99643.84
2024-05-09T04:48:04.256Z,99640.03
2024-05-09T04:50:38.311Z,99644.56
2024-05-09T04:53:11.813Z,99644.13
2024-05-09T04:55:43.318Z,99643.88
2024-05-09T04:58:14.815Z,99649.19
2024-05-09T05:00:46.712Z,99653.34
2024-05-09T05:03:19.197Z,99660.19
2024-05-09T05:05:50.241Z,99671.00
2024-05-09T05:08:22.192Z,99661.69
2024-05-09T05:10:53.239Z,99666.28
2024-05-09T05:13:24.790Z,99666.06
2024-05-09T05:15:58.400Z,99670.63
2024-05-09T05:18:32.320Z,99667.84
2024-05-09T05:21:03.310Z,99664.50
2024-05-09T05:23:34.248Z,99673.41
2024-05-09T05:26:05.252Z,99677.25
2024-05-09T05:28:36.219Z,99679.47
2024-05-09T05:31:07.049Z,99674.19
2024-05-09T05:33:38.116Z,99671.88
2024-05-09T05:36:09.543Z,99677.16
2024-05-09T05:38:40.790Z,99675.59
2024-05-09T05:41:11.604Z,99682.53
2024-05-09T05:43:42.455Z,99680.53
2024-05-09T05:46:13.358Z,99689.19
2024-05-09T05:48:44.319Z,99683.56
2024-05-09T05:51:15.535Z,99686.50
2024-05-09T05:53:46.548Z,99689.00
2024-05-09T05:56:17.474Z,99693.97
2024-05-09T05:58:48.413Z,99688.44
2024-05-09T06:01:19.349Z,99687.75
2024-05-09T06:03:50.418Z,99693.72
2024-05-09T06:06:21.455Z,99697.34
2024-05-09T06:08:52.523Z,99696.41
2024-05-09T06:11:23.617Z,99693.38
2024-05-09T06:13:54.604Z,99690.41
2024-05-09T06:16:25.479Z,99691.22
2024-05-09T06:18:56.653Z,99700.56
2024-05-09T06:21:27.702Z,99688.97
2024-05-09T06:23:58.592Z,99688.22
2024-05-09T06:26:29.488Z,99691.63
2024-05-09T06:29:00.396Z,99684.06
2024-05-09T06:31:32.083Z,99682.47
2024-05-09T06:34:03.251Z,99684.91
2024-05-09T06:36:34.182Z,99691.72
2024-05-09T06:39:05.498Z,99694.25
2024-05-09T06:41:36.416Z,99690.81
2024-05-09T06:44:07.230Z,99692.09
2024-05-09T06:46:40.347Z,99689.34
2024-05-09T06:49:14.714Z,99692.56
2024-05-09T06:51:45.948Z,99693.63
2024-05-09T06:54:18.375Z,99690.63
2024-05-09T06:56:49.261Z,99687.59
2024-05-09T06:59:20.212Z,99689.78
2024-05-09T07:01:51.297Z,99697.66
2024-05-09T07:04:22.508Z,99702.00
2024-05-09T07:06:53.417Z,99701.38
2024-05-09T07:09:24.262Z,99699.81
2024-05-09T07:11:55.122Z,99705.31
2024-05-09T07:14:26.415Z,99714.69
2024-05-09T07:16:57.348Z,99707.75
2024-05-09T07:19:28.346Z,99707.13
2024-05-09T07:21:59.979Z,99713.72
2024-05-09T07:24:30.937Z,99711.66
2024-05-09T07:27:01.906Z,99714.44
2024-05-09T07:29:34.762Z,99717.00
2024-05-09T07:32:07.334Z,99719.94
2024-05-09T07:34:38.305Z,99718.66
2024-05-09T07:37:12.799Z,99715.53
2024-05-09T07:39:44.201Z,99724.78
2024-05-09T07:42:16.079Z,99722.88
2024-05-09T07:44:47.255Z,99722.13
2024-05-09T07:48:29.013Z,99725.19
2024-05-09T07:53:34.342Z,99719.69
2024-05-09T07:55:34.738Z,99725.91
2024-05-09T07:58:05.697Z,99718.47
2024-05-09T08:00:36.789Z,99715.38
2024-05-09T08:03:08.131Z,99723.25
2024-05-09T08:05:39.316Z,99730.31
2024-05-09T08:08:11.444Z,99719.59
2024-05-09T08:10:42.515Z,99727.59
2024-05-09T08:13:13.589Z,99727.78
2024-05-09T08:15:44.733Z,99735.56
2024-05-09T08:18:15.999Z,99726.56
2024-05-09T08:20:47.607Z,99730.06
2024-05-09T08:23:18.508Z,99730.50
2024-05-09T08:25:49.445Z,99735.09
2024-05-09T08:28:20.670Z,99731.81
2024-05-09T08:30:51.995Z,99735.09
2024-05-09T08:33:23.221Z,99734.84
2024-05-09T08:35:54.314Z,99741.34
2024-05-09T08:38:25.238Z,99744.34
2024-05-09T08:40:57.630Z,99737.50
2024-05-09T08:43:30.577Z,99733.50
2024-05-09T08:46:03.549Z,99730.25
2024-05-09T08:48:38.329Z,99736.72
2024-05-09T08:51:10.520Z,99744.09
2024-05-09T08:53:41.637Z,99740.03
2024-05-09T08:56:15.628Z,99746.88
2024-05-09T08:58:49.594Z,99745.44
2024-05-09T09:01:22.127Z,99745.53
2024-05-09T09:03:55.248Z,99747.13
2024-05-09T09:06:26.597Z,99749.53
2024-05-09T09:08:58.240Z,99740.56
2024-05-09T09:11:29.076Z,99738.78
2024-05-09T09:13:59.858Z,99735.63
2024-05-09T09:16:37.971Z,99738.94
2024-05-09T09:19:09.314Z,99740.81
2024-05-09T09:21:40.239Z,99734.34
2024-05-09T09:24:11.166Z,99734.34
2024-05-09T09:26:42.120Z,99738.25
2024-05-09T09:29:12.928Z,99736.97
2024-05-09T09:31:43.852Z,99744.25
2024-05-09T09:34:14.811Z,99734.84
2024-05-09T09:36:47.165Z,99738.00
2024-05-09T09:39:22.108Z,99734.50
2024-05-09T09:41:53.510Z,99734.56
2024-05-09T09:44:25.902Z,99734.56
2024-05-09T09:47:06.447Z,99732.16
2024-05-09T09:49:37.793Z,99731.53
2024-05-09T09:52:11.144Z,99734.59
2024-05-09T09:54:43.225Z,99735.81
2024-05-09T09:57:14.074Z,99730.28
2024-05-09T09:59:49.077Z,99725.81
2024-05-09T10:02:20.103Z,99729.38
2024-05-09T10:04:51.926Z,99725.44
2024-05-09T10:07:27.685Z,99730.53
2024-05-09T10:10:01.966Z,99726.50
2024-05-09T10:12:34.374Z,99726.34
2024-05-09T10:15:11.719Z,99726.03
2024-05-09T10:17:53.991Z,99725.28
2024-05-09T10:20:28.191Z,99719.38
2024-05-09T10:23:03.038Z,99720.06
2024-05-09T10:25:33.975Z,99729.28
2024-05-09T10:28:05.906Z,99725.09
2024-05-09T10:30:37.425Z,99728.91
2024-05-09T10:33:15.292Z,99726.22
2024-05-09T10:35:55.429Z,99720.69
2024-05-09T10:38:26.422Z,99723.63
2024-05-09T10:41:00.985Z,99724.97
2024-05-09T10:43:32.577Z,99726.22
2024-05-09T10:46:03.605Z,99719.22
2024-05-09T10:48:34.730Z,99729.00
2024-05-09T10:51:05.758Z,99718.69
2024-05-09T10:53:47.424Z,99716.28
2024-05-09T10:56:18.842Z,99726.38
2024-05-09T10:58:49.697Z,99723.00
2024-05-09T11:01:20.858Z,99728.47
2024-05-09T11:03:52.927Z,99727.94
2024-05-09T11:06:23.892Z,99724.38
2024-05-09T11:08:55.187Z,99729.50
2024-05-09T11:11:26.213Z,99724.72
2024-05-09T11:13:57.321Z,99720.75
2024-05-09T11:16:28.222Z,99722.84
2024-05-09T11:19:00.815Z,99722.28
2024-05-09T11:21:31.889Z,99718.78
2024-05-09T11:24:02.828Z,99717.16
2024-05-09T11:26:35.855Z,99722.53
2024-05-09T11:29:06.693Z,99719.38
2024-05-09T11:31:37.649Z,99714.50
2024-05-09T11:34:08.957Z,99709.38
2024-05-09T11:36:39.965Z,99717.75
2024-05-09T11:39:11.845Z,99711.50
2024-05-09T11:41:42.812Z,99714.25
2024-05-09T11:44:13.680Z,99709.81
2024-05-09T11:46:44.914Z,99711.59
2024-05-09T11:49:16.054Z,99711.16
2024-05-09T11:51:46.956Z,99709.81
2024-05-09T11:54:20.164Z,99704.84
2024-05-09T11:56:51.789Z,99710.75
2024-05-09T11:59:22.687Z,99705.28
2024-05-09T12:01:53.936Z,99706.63
2024-05-09T12:04:25.630Z,99700.56
2024-05-09T12:07:00.747Z,99706.53
2024-05-09T12:09:32.151Z,99707.25
2024-05-09T12:12:03.095Z,99703.78
2024-05-09T12:14:34.047Z,99716.28
2024-05-09T12:17:05.846Z,99702.53
2024-05-09T12:19:37.333Z,99707.38
2024-05-09T12:22:08.690Z,99702.84
2024-05-09T12:24:39.857Z,99699.00
2024-05-09T12:27:10.745Z,99700.28
2024-05-09T12:29:41.596Z,99704.63
2024-05-09T12:32:12.466Z,99699.09
2024-05-09T12:34:43.460Z,99697.06
2024-05-09T12:37:14.493Z,99691.44
2024-05-09T12:39:45.538Z,99694.81
2024-05-09T12:42:26.445Z,99687.84
2024-05-09T12:44:59.106Z,99683.06
2024-05-09T12:47:30.086Z,99678.69
2024-05-09T12:50:01.384Z,99683.91
2024-05-09T12:52:32.364Z,99680.16
2024-05-09T12:55:03.370Z,99676.75
2024-05-09T12:57:34.538Z,99678.69
2024-05-09T13:00:05.854Z,99682.34
2024-05-09T13:02:38.545Z,99681.75
2024-05-09T13:05:10.619Z,99680.69
2024-05-09T13:07:41.901Z,99676.91
2024-05-09T13:10:19.737Z,99677.53
2024-05-09T13:12:53.707Z,99668.00
2024-05-09T13:15:25.183Z,99669.66
2024-05-09T13:17:58.288Z,99671.88
2024-05-09T13:20:34.573Z,99676.31
2024-05-09T13:23:09.469Z,99668.09
2024-05-09T13:25:41.342Z,99674.16
2024-05-09T13:28:14.608Z,99675.53
2024-05-09T13:30:45.557Z,99669.38
2024-05-09T13:33:17.267Z,99664.84
2024-05-09T13:35:50.662Z,99672.84
2024-05-09T13:38:22.961Z,99671.22
2024-05-09T13:40:53.970Z,99661.06
2024-05-09T13:43:25.627Z,99666.38
2024-05-09T13:45:57.614Z,99661.88
2024-05-09T13:48:29.024Z,99655.19
2024-05-09T13:51:01.067Z,99664.22
2024-05-09T13:53:31.976Z,99661.06
2024-05-09T13:56:03.103Z,99664.38
2024-05-09T13:58:33.892Z,99660.94
2024-05-09T14:01:04.843Z,99660.69
2024-05-09T14:03:36.900Z,99656.78
2024-05-09T14:06:12.083Z,99658.94
2024-05-09T14:08:44.156Z,99656.69
2024-05-09T14:11:15.057Z,99668.84
2024-05-09T14:13:49.067Z,99668.00
2024-05-09T14:16:19.997Z,99666.13
2024-05-09T14:18:50.942Z,99656.31
2024-05-09T14:21:21.859Z,99657.75
2024-05-09T14:23:52.657Z,99652.31
2024-05-09T14:26:26.201Z,99660.94
2024-05-09T14:28:57.570Z,99653.22
2024-05-09T14:31:28.763Z,99659.69
2024-05-09T14:33:59.912Z,99656.38
2024-05-09T14:36:30.917Z,99649.13
2024-05-09T14:39:04.841Z,99653.16
2024-05-09T14:41:39.122Z,99653.50
2024-05-09T14:44:12.647Z,99658.47
2024-05-09T14:46:44.075Z,99655.72
2024-05-09T14:49:15.228Z,99659.81
2024-05-09T14:51:51.227Z,99657.63
2024-05-09T14:54:22.040Z,99655.38
2024-05-09T14:56:59.816Z,99648.75
2024-05-09T14:59:30.811Z,99647.09
2024-05-09T15:02:01.852Z,99650.91
2024-05-09T15:04:32.995Z,99646.81
2024-05-09T15:07:04.292Z,99651.94
2024-05-09T15:09:39.726Z,99644.16
2024-05-09T15:12:10.685Z,99656.50
2024-05-09T15:14:41.693Z,99641.84
2024-05-09T15:17:12.667Z,99650.81
2024-05-09T15:19:43.911Z,99643.84
2024-05-09T15:22:16.570Z,99652.09
2024-05-09T15:24:48.604Z,99650.16
2024-05-09T15:27:20.786Z,99654.75
2024-05-09T15:29:54.271Z,99659.44
2024-05-09T15:32:29.527Z,99656.41
2024-05-09T15:35:03.928Z,99651.47
2024-05-09T15:37:35.826Z,99652.94
2024-05-09T15:40:12.136Z,99658.09
2024-05-09T15:42:46.046Z,99662.13
2024-05-09T15:45:18.188Z,99657.84
2024-05-09T15:47:49.536Z,99657.16
2024-05-09T15:50:31.990Z,99668.06
2024-05-09T15:53:10.321Z,99665.59
2024-05-09T15:55:46.051Z,99660.53
2024-05-09T15:58:18.941Z,99667.16
2024-05-09T16:00:52.160Z,99668.75
2024-05-09T16:03:26.459Z,99668.31
2024-05-09T16:06:01.482Z,99665.09
2024-05-09T16:08:34.978Z,99662.25
2024-05-09T16:11:07.384Z,99665.59
2024-05-09T16:13:38.898Z,99666.75
2024-05-09T16:16:10.195Z,99665.25
2024-05-09T16:18:45.575Z,99666.31
2024-05-09T16:21:16.534Z,99668.97
2024-05-09T16:23:48.604Z,99664.56
2024-05-09T16:26:19.572Z,99663.88
2024-05-09T16:28:50.464Z,99671.16
2024-05-09T16:31:21.554Z,99673.22
2024-05-09T16:33:52.519Z,99672.72
2024-05-09T16:36:23.878Z,99671.16
2024-05-09T16:38:54.780Z,99672.72
2024-05-09T16:41:25.725Z,99672.34
2024-05-09T16:43:58.529Z,99674.66
2024-05-09T16:46:31.744Z,99683.03
2024-05-09T16:49:04.019Z,99682.56
2024-05-09T16:51:35.583Z,99677.44
2024-05-09T16:54:10.553Z,99679.56
2024-05-09T16:56:41.523Z,99686.81
2024-05-09T16:59:12.461Z,99687.47
2024-05-09T17:01:44.754Z,99696.97
2024-05-09T17:04:15.839Z,99692.44
2024-05-09T17:06:47.202Z,99693.69
2024-05-09T17:09:20.635Z,99691.69
2024-05-09T17:11:51.762Z,99701.81
2024-05-09T17:14:24.101Z,99693.56
2024-05-09T17:16:55.582Z,99694.56
2024-05-09T17:19:26.597Z,99696.22
2024-05-09T17:21:57.511Z,99701.94
2024-05-09T17:24:29.512Z,99701.97
2024-05-09T17:27:01.971Z,99697.88
2024-05-09T17:29:33.584Z,99704.59
2024-05-09T17:32:06.240Z,99705.13
2024-05-09T17:34:37.827Z,99713.06
2024-05-09T17:37:10.051Z,99713.47
2024-05-09T17:39:43.567Z,99712.59
2024-05-09T17:42:16.134Z,99714.16
2024-05-09T17:44:49.961Z,99720.53
2024-05-09T17:47:28.048Z,99710.84
2024-05-09T17:49:59.111Z,99717.09
2024-05-09T17:52:30.144Z,99718.19
2024-05-09T17:55:04.127Z,99719.19
2024-05-09T17:57:38.150Z,99722.22
2024-05-09T18:00:11.891Z,99726.84
2024-05-09T18:02:46.197Z,99724.84
2024-05-09T18:05:17.551Z,99730.03
2024-05-09T18:07:48.733Z,99735.63
2024-05-09T18:10:25.752Z,99734.53
2024-05-09T18:13:06.363Z,99743.13
2024-05-09T18:15:41.264Z,99751.84
2024-05-09T18:18:13.664Z,99756.78
2024-05-09T18:20:48.407Z,99754.22
2024-05-09T18:23:20.909Z,99761.94
2024-05-09T18:25:54.887Z,99761.50
2024-05-09T18:28:28.620Z,99765.03
2024-05-09T18:31:02.951Z,99765.25
2024-05-09T18:33:34.698Z,99775.63
2024-05-09T18:36:06.843Z,99779.34
2024-05-09T18:38:40.916Z,99775.06
2024-05-09T18:41:14.896Z,99769.69
2024-05-09T18:43:50.203Z,99771.44
2024-05-09T18:46:23.969Z,99777.00
2024-05-09T18:48:59.173Z,99779.69
2024-05-09T18:51:30.764Z,99782.88
2024-05-09T18:54:04.141Z,99777.72
2024-05-09T18:56:55.241Z,99780.28
2024-05-09T18:59:27.503Z,99782.00
2024-05-09T19:01:59.845Z,99781.34
2024-05-09T19:04:32.396Z,99780.56
2024-05-09T19:07:05.680Z,99779.94
2024-05-09T19:09:36.966Z,99779.78
2024-05-09T19:12:10.990Z,99789.03
2024-05-09T19:14:43.745Z,99793.31
2024-05-09T19:17:16.658Z,99790.88
2024-05-09T19:19:52.496Z,99798.50
2024-05-09T19:22:26.672Z,99792.97
2024-05-09T19:24:59.238Z,99795.53
2024-05-09T19:27:34.750Z,99797.44
2024-05-09T19:30:11.924Z,99804.47
2024-05-09T19:32:48.996Z,99807.66
2024-05-09T19:35:22.557Z,99811.84
2024-05-09T19:37:54.843Z,99806.44
2024-05-09T19:40:32.055Z,99810.56
2024-05-09T19:43:09.421Z,99805.91
2024-05-09T19:45:40.585Z,99807.38
2024-05-09T19:48:13.147Z,99814.47
2024-05-09T19:50:45.175Z,99805.09
2024-05-09T19:53:17.541Z,99813.97
2024-05-09T19:55:49.314Z,99815.47
2024-05-09T19:58:21.143Z,99807.38
2024-05-09T20:00:52.859Z,99820.38
2024-05-09T20:03:25.065Z,99810.06
2024-05-09T20:05:57.116Z,99813.22
2024-05-09T20:08:28.773Z,99822.81
2024-05-09T20:11:00.352Z,99822.06
2024-05-09T20:13:33.680Z,99822.28
2024-05-09T20:16:04.973Z,99826.44
2024-05-09T20:18:39.644Z,99831.50
2024-05-09T20:21:11.875Z,99830.16
2024-05-09T20:23:42.999Z,99829.72
2024-05-09T20:26:16.846Z,99829.63
2024-05-09T20:28:58.719Z,99830.94
2024-05-09T20:31:34.005Z,99831.47
2024-05-09T20:34:07.761Z,99834.25
2024-05-09T20:36:38.868Z,99841.38
2024-05-09T20:39:14.972Z,99841.06
2024-05-09T20:41:48.981Z,99840.25
2024-05-09T20:44:20.313Z,99841.81
2024-05-09T20:46:52.171Z,99846.16
2024-05-09T20:49:24.086Z,99849.03
2024-05-09T20:51:55.311Z,99850.91
2024-05-09T20:54:29.394Z,99849.13
2024-05-09T20:57:01.063Z,99845.72
2024-05-09T20:59:32.036Z,99840.00
2024-05-09T21:02:03.613Z,99847.19
2024-05-09T21:04:34.801Z,99842.13
2024-05-09T21:07:06.678Z,99854.22
2024-05-09T21:09:37.704Z,99854.81
2024-05-09T21:12:09.007Z,99852.16
2024-05-09T21:14:39.908Z,99856.56
2024-05-09T21:17:10.840Z,99852.69
2024-05-09T21:19:41.768Z,99860.78
2024-05-09T21:22:12.698Z,99867.38
2024-05-09T21:24:44.923Z,99867.81
2024-05-09T21:27:15.774Z,99862.59
2024-05-09T21:29:46.558Z,99865.28
2024-05-09T21:32:17.336Z,99871.09
2024-05-09T21:34:48.253Z,99865.88
2024-05-09T21:37:19.048Z,99872.66
2024-05-09T21:39:52.751Z,99877.22
2024-05-09T21:42:23.639Z,99871.91
2024-05-09T21:44:54.358Z,99871.34
2024-05-09T21:47:25.384Z,99872.50
2024-05-09T21:49:56.640Z,99876.47
2024-05-09T21:52:27.554Z,99883.31
2024-05-09T21:54:58.331Z,99888.31
2024-05-09T21:57:29.103Z,99881.25
2024-05-09T21:59:59.800Z,99888.25
2024-05-09T22:02:30.883Z,99889.97
2024-05-09T22:05:01.988Z,99895.09
2024-05-09T22:07:32.973Z,99885.41
2024-05-09T22:10:05.120Z,99885.97
2024-05-09T22:12:38.741Z,99880.16
2024-05-09T22:15:09.975Z,99880.38
2024-05-09T22:17:43.615Z,99880.03
2024-05-09T22:20:21.928Z,99874.66
2024-05-09T22:22:59.151Z,99883.34
2024-05-09T22:25:31.154Z,99877.78
2024-05-09T22:28:03.292Z,99879.41
2024-05-09T22:30:39.135Z,99875.94
2024-05-09T22:33:12.763Z,99882.56
2024-05-09T22:35:44.045Z,99871.78
2024-05-09T22:38:14.823Z,99867.28
2024-05-09T22:40:48.846Z,99867.22
2024-05-09T22:43:25.252Z,99876.25
2024-05-09T22:45:59.198Z,99875.41
2024-05-09T22:48:29.995Z,99866.06
2024-05-09T22:51:00.827Z,99863.88
2024-05-09T22:53:31.625Z,99864.84
2024-05-09T22:56:02.416Z,99867.13
2024-05-09T22:58:33.168Z,99871.69
2024-05-09T23:01:04.025Z,99855.19
2024-05-09T23:03:35.915Z,99860.34
2024-05-09T23:06:10.054Z,99862.50
2024-05-09T23:08:40.805Z,99856.69
2024-05-09T23:11:11.717Z,99853.16
2024-05-09T23:13:42.481Z,99858.59
2024-05-09T23:16:14.110Z,99854.16
2024-05-09T23:18:45.029Z,99862.56
2024-05-09T23:21:15.862Z,99845.97
2024-05-09T23:23:46.554Z,99845.69
2024-05-09T23:26:17.351Z,99846.56
2024-05-09T23:28:48.150Z,99830.72
2024-05-09T23:31:18.953Z,99838.88
2024-05-09T23:33:50.213Z,99837.91
2024-05-09T23:36:21.052Z,99833.22
2024-05-09T23:38:51.750Z,99833.69
2024-05-09T23:41:25.815Z,99823.84
2024-05-09T23:43:56.520Z,99825.16
2024-05-09T23:46:29.305Z,99832.34
2024-05-09T23:49:00.185Z,99821.13
2024-05-09T23:51:30.978Z,99822.06
2024-05-09T23:54:01.670Z,99821.88
2024-05-09T23:56:32.470Z,99821.69
2024-05-09T23:59:03.193Z,99814.91
